Time;durP1;ratioP1;P1;durP2;ratioP2;P2;SDS_P1;SDS_P2;PMS_P1;PMS_P2;Temp;Humidity;BMP_temperature;BMP_pressure;BME280_temperature;BME280_humidity;BME280_pressure;Samples;Min_cycle;Max_cycle;Signal;HPM_P1;HPM_P2
2022/03/03 00:00:14;;;;;;;4.85;2.25;;;4.40;66.50;;;;;;5073628;28;20449;-76
2022/03/03 00:02:42;;;;;;;4.18;1.88;;;4.40;66.60;;;;;;5038769;28;20051;-76
2022/03/03 00:05:10;;;;;;;4.30;2.03;;;4.30;66.70;;;;;;5039182;28;20472;-76
2022/03/03 00:07:37;;;;;;;5.43;2.40;;;4.30;66.80;;;;;;5039069;28;20072;-76
2022/03/03 00:10:05;;;;;;;6.45;3.33;;;4.30;66.80;;;;;;5039014;28;20085;-76
2022/03/03 00:12:33;;;;;;;5.57;2.38;;;4.30;66.80;;;;;;5022455;28;20044;-76
2022/03/03 00:15:00;;;;;;;4.55;2.03;;;4.30;66.80;;;;;;5055452;28;20098;-76
2022/03/03 00:17:28;;;;;;;4.60;2.72;;;4.30;66.90;;;;;;5055546;28;20064;-76
2022/03/03 00:19:56;;;;;;;5.93;2.47;;;4.20;67.00;;;;;;5038009;28;20044;-76
2022/03/03 00:22:22;;;;;;;5.22;2.83;;;4.20;67.00;;;;;;5038633;28;20553;-76
2022/03/03 00:24:49;;;;;;;3.92;1.60;;;4.20;67.10;;;;;;5038879;28;20045;-76
2022/03/03 00:27:16;;;;;;;9.10;2.63;;;4.20;67.20;;;;;;5022512;28;20132;-76
2022/03/03 00:29:43;;;;;;;4.93;2.42;;;4.10;67.20;;;;;;5039728;28;20044;-76
2022/03/03 00:32:10;;;;;;;3.85;1.90;;;4.10;67.40;;;;;;5040630;28;20089;-76
2022/03/03 00:34:38;;;;;;;5.13;2.33;;;4.10;67.50;;;;;;5056267;28;20131;-76
2022/03/03 00:37:05;;;;;;;5.30;2.30;;;4.00;67.50;;;;;;5040277;28;20052;-76
2022/03/03 00:39:32;;;;;;;5.15;2.42;;;4.00;67.60;;;;;;5023461;28;20048;-76
2022/03/03 00:41:59;;;;;;;4.53;1.75;;;4.00;67.70;;;;;;5063115;28;20048;-76
2022/03/03 00:44:25;;;;;;;5.25;2.60;;;4.00;67.80;;;;;;5058391;28;20044;-76
2022/03/03 00:46:53;;;;;;;4.68;2.13;;;4.00;67.90;;;;;;5058711;28;20056;-76
2022/03/03 00:49:20;;;;;;;4.53;1.95;;;3.90;67.90;;;;;;5075064;28;20047;-76
2022/03/03 00:51:47;;;;;;;3.63;1.80;;;3.90;68.00;;;;;;5042078;28;20481;-76
2022/03/03 00:54:14;;;;;;;4.53;2.33;;;3.90;68.10;;;;;;5041738;28;20044;-77
2022/03/03 00:56:41;;;;;;;4.37;1.80;;;3.90;68.10;;;;;;5074648;28;20040;-78
2022/03/03 00:59:10;;;;;;;5.63;2.33;;;3.90;68.10;;;;;;5058409;28;20060;-78
2022/03/03 01:01:37;;;;;;;4.93;2.65;;;3.80;68.10;;;;;;5042022;28;20047;-78
2022/03/03 01:04:04;;;;;;;6.57;2.67;;;3.90;68.20;;;;;;5058465;28;20063;-77
2022/03/03 01:06:31;;;;;;;5.88;3.00;;;3.80;68.00;;;;;;5058009;28;20196;-77
2022/03/03 01:08:58;;;;;;;4.55;2.05;;;3.80;68.10;;;;;;5057952;28;20040;-77
2022/03/03 01:11:25;;;;;;;5.82;2.45;;;3.80;68.10;;;;;;5058213;28;20040;-77
2022/03/03 01:13:52;;;;;;;4.90;2.67;;;3.80;68.50;;;;;;5041864;28;20052;-77
2022/03/03 01:16:19;;;;;;;7.85;3.55;;;3.80;68.30;;;;;;5041879;28;20040;-77
2022/03/03 01:18:47;;;;;;;5.90;2.75;;;3.70;68.40;;;;;;5042151;28;20040;-77
2022/03/03 01:21:14;;;;;;;5.70;2.80;;;3.70;68.30;;;;;;5058126;28;20044;-77
2022/03/03 01:23:41;;;;;;;5.05;2.22;;;3.70;68.40;;;;;;5058311;28;20412;-77
2022/03/03 01:26:08;;;;;;;6.10;3.20;;;3.70;68.50;;;;;;5041782;28;20043;-77
2022/03/03 01:28:35;;;;;;;6.38;3.08;;;3.60;68.50;;;;;;5092640;28;20035;-77
2022/03/03 01:31:02;;;;;;;5.67;2.83;;;3.60;68.50;;;;;;5044278;28;20036;-77
2022/03/03 01:33:30;;;;;;;5.95;2.95;;;3.60;68.60;;;;;;5078931;28;20070;-77
2022/03/03 01:35:57;;;;;;;5.43;2.80;;;3.60;68.70;;;;;;5045562;28;20044;-76
2022/03/03 01:38:24;;;;;;;5.00;2.58;;;3.60;68.70;;;;;;5078388;28;20078;-77
2022/03/03 01:40:51;;;;;;;5.93;2.77;;;3.60;69.40;;;;;;5062100;28;20500;-77
2022/03/03 01:43:18;;;;;;;4.07;2.40;;;3.50;68.80;;;;;;5062472;28;20557;-77
2022/03/03 01:45:46;;;;;;;5.13;2.23;;;3.50;68.90;;;;;;5078663;28;20468;-77
2022/03/03 01:48:13;;;;;;;5.87;2.80;;;3.50;68.90;;;;;;5076057;28;20135;-77
2022/03/03 01:50:40;;;;;;;6.03;2.50;;;3.50;69.60;;;;;;5058111;28;20089;-77
2022/03/03 01:53:07;;;;;;;5.10;2.72;;;3.40;69.00;;;;;;5078319;28;20542;-77
2022/03/03 01:55:34;;;;;;;4.70;2.20;;;3.40;69.10;;;;;;5061584;28;20040;-77
2022/03/03 01:58:04;;;;;;;6.57;2.90;;;3.40;69.10;;;;;;5061427;28;20093;-76
2022/03/03 02:00:31;;;;;;;6.70;3.80;;;3.40;69.20;;;;;;5096273;28;20040;-77
2022/03/03 02:03:00;;;;;;;6.27;2.50;;;3.40;69.20;;;;;;5078205;28;20476;-77
2022/03/03 02:05:29;;;;;;;4.93;2.30;;;3.40;69.30;;;;;;5078069;28;20097;-77
2022/03/03 02:07:57;;;;;;;6.18;2.47;;;3.30;69.40;;;;;;5078451;28;20135;-77
2022/03/03 02:10:24;;;;;;;5.43;2.23;;;3.30;69.40;;;;;;5061512;28;20134;-77
2022/03/03 02:12:51;;;;;;;4.75;2.10;;;3.30;69.50;;;;;;5077959;28;20080;-77
2022/03/03 02:15:22;;;;;;;5.03;2.37;;;3.20;69.50;;;;;;5061436;28;20044;-77
2022/03/03 02:17:49;;;;;;;6.23;2.90;;;3.20;69.60;;;;;;5077989;28;20499;-77
2022/03/03 02:20:25;;;;;;;5.30;2.60;;;3.10;69.70;;;;;;5077850;28;20047;-77
2022/03/03 02:22:53;;;;;;;4.45;2.08;;;3.10;69.80;;;;;;5077916;28;20048;-77
2022/03/03 02:25:21;;;;;;;5.80;2.53;;;3.10;69.90;;;;;;5077593;28;20048;-77
2022/03/03 02:27:52;;;;;;;5.27;2.47;;;3.10;70.00;;;;;;5077417;28;20565;-76
2022/03/03 02:30:19;;;;;;;4.70;2.07;;;3.10;70.00;;;;;;5077734;28;20047;-77
2022/03/03 02:32:47;;;;;;;6.03;2.45;;;3.00;70.60;;;;;;5044504;28;20048;-76
2022/03/03 02:35:15;;;;;;;5.83;2.80;;;3.00;70.00;;;;;;5077477;28;20492;-76
2022/03/03 02:37:44;;;;;;;5.23;2.53;;;3.00;70.00;;;;;;5095611;28;20036;-76
2022/03/03 02:40:14;;;;;;;5.22;2.20;;;3.00;70.10;;;;;;5095619;28;20089;-77
2022/03/03 02:42:41;;;;;;;4.93;2.42;;;3.00;70.30;;;;;;5076603;28;20056;-77
2022/03/03 02:45:09;;;;;;;6.10;2.20;;;3.00;70.30;;;;;;5060760;28;20052;-76
2022/03/03 02:47:45;;;;;;;5.83;2.40;;;3.00;70.40;;;;;;5060965;28;20051;-76
2022/03/03 02:50:14;;;;;;;5.40;2.77;;;2.90;70.30;;;;;;5095244;28;20545;-76
2022/03/03 02:52:41;;;;;;;3.97;1.83;;;2.90;70.40;;;;;;5044420;28;20044;-76
2022/03/03 02:55:09;;;;;;;5.33;2.50;;;2.90;70.50;;;;;;5095493;28;20484;-76
2022/03/03 02:57:54;;;;;;;7.07;2.75;;;2.90;70.60;;;;;;5095349;28;20040;-76
2022/03/03 03:00:35;;;;;;;5.67;2.50;;;2.90;70.60;;;;;;5060309;28;20389;-77
2022/03/03 03:03:06;;;;;;;5.43;2.50;;;2.80;70.60;;;;;;5061494;28;20399;-76
2022/03/03 03:05:34;;;;;;;5.35;2.58;;;2.80;70.70;;;;;;5077968;28;20116;-76
2022/03/03 03:08:03;;;;;;;5.27;2.60;;;2.70;70.80;;;;;;5044716;28;20230;-76
2022/03/03 03:10:30;;;;;;;4.73;2.53;;;2.70;70.80;;;;;;5060883;28;20135;-76
2022/03/03 03:12:58;;;;;;;6.53;3.17;;;2.70;70.90;;;;;;5077443;28;20068;-76
2022/03/03 03:15:25;;;;;;;5.32;2.63;;;2.70;71.00;;;;;;5060438;28;20047;-76
2022/03/03 03:17:52;;;;;;;5.17;2.43;;;2.70;71.00;;;;;;5076960;28;20035;-76
2022/03/03 03:20:20;;;;;;;5.00;2.77;;;2.70;71.00;;;;;;5060246;28;20052;-76
2022/03/03 03:22:49;;;;;;;5.53;2.60;;;2.70;71.10;;;;;;5060280;28;20138;-76
2022/03/03 03:25:16;;;;;;;5.90;2.20;;;2.70;71.10;;;;;;5044045;28;20052;-79
2022/03/03 03:27:44;;;;;;;4.93;2.73;;;2.70;71.10;;;;;;5076833;28;20385;-79
2022/03/03 03:30:12;;;;;;;5.90;2.80;;;2.60;71.10;;;;;;5060767;28;20047;-79
2022/03/03 03:32:39;;;;;;;5.67;2.10;;;2.60;71.10;;;;;;5077929;28;20108;-80
2022/03/03 03:35:07;;;;;;;5.63;2.50;;;2.60;71.20;;;;;;5061601;28;20032;-80
2022/03/03 03:37:36;;;;;;;4.43;2.00;;;2.60;71.30;;;;;;5077432;28;20492;-79
2022/03/03 03:40:07;;;;;;;5.40;2.53;;;2.60;71.30;;;;;;5077780;28;20040;-79
2022/03/03 03:42:37;;;;;;;4.63;2.07;;;2.60;71.50;;;;;;5077559;28;20464;-79
2022/03/03 03:45:08;;;;;;;5.20;2.63;;;2.60;71.50;;;;;;5043884;28;20049;-79
2022/03/03 03:47:36;;;;;;;5.47;2.30;;;2.50;71.50;;;;;;5078132;28;20048;-79
2022/03/03 03:50:05;;;;;;;5.10;2.80;;;2.50;71.60;;;;;;5062017;28;20534;-79
2022/03/03 03:52:33;;;;;;;5.57;2.30;;;2.50;71.70;;;;;;5061228;28;20048;-79
2022/03/03 03:55:00;;;;;;;5.47;2.37;;;2.40;71.70;;;;;;5061198;28;20093;-80
2022/03/03 03:57:30;;;;;;;5.23;2.03;;;2.40;71.80;;;;;;5062028;28;20048;-80
2022/03/03 03:59:58;;;;;;;6.57;2.87;;;2.40;71.80;;;;;;5027564;28;20097;-80
2022/03/03 04:02:25;;;;;;;4.63;2.13;;;2.40;71.70;;;;;;5061373;28;20152;-80
2022/03/03 04:04:53;;;;;;;5.60;2.40;;;2.40;71.80;;;;;;5061516;28;20040;-80
2022/03/03 04:07:20;;;;;;;5.43;2.33;;;2.40;71.80;;;;;;5061825;28;20056;-79
2022/03/03 04:09:50;;;;;;;4.17;2.03;;;2.40;72.00;;;;;;5077597;28;20040;-79
2022/03/03 04:12:20;;;;;;;5.90;2.20;;;2.40;72.00;;;;;;5060354;28;20054;-80
2022/03/03 04:14:47;;;;;;;5.40;2.17;;;2.30;72.00;;;;;;5059863;28;20043;-76
2022/03/03 04:17:14;;;;;;;5.07;2.20;;;2.30;72.10;;;;;;5075924;28;20128;-76
2022/03/03 04:19:41;;;;;;;5.17;2.30;;;2.30;72.10;;;;;;5042480;28;20082;-76
2022/03/03 04:22:08;;;;;;;5.03;2.13;;;2.30;72.20;;;;;;5042528;28;20101;-76
2022/03/03 04:24:35;;;;;;;5.73;2.43;;;2.30;72.90;;;;;;5058999;28;20048;-76
2022/03/03 04:27:04;;;;;;;5.47;2.50;;;2.30;72.30;;;;;;5075542;28;20043;-76
2022/03/03 04:29:31;;;;;;;5.33;2.50;;;2.20;72.40;;;;;;5058654;28;20040;-76
2022/03/03 04:31:58;;;;;;;4.27;1.90;;;2.20;72.40;;;;;;5075568;28;20036;-79
2022/03/03 04:34:26;;;;;;;4.30;1.77;;;2.20;72.40;;;;;;5093484;28;20119;-77
2022/03/03 04:36:53;;;;;;;4.97;2.43;;;2.20;72.50;;;;;;5058688;28;20044;-76
2022/03/03 04:39:20;;;;;;;4.47;2.30;;;2.10;72.50;;;;;;5059088;28;20129;-76
2022/03/03 04:41:47;;;;;;;4.73;2.67;;;2.20;72.50;;;;;;5041892;28;20063;-76
2022/03/03 04:44:14;;;;;;;6.53;2.60;;;2.20;72.50;;;;;;5075154;28;20040;-76
2022/03/03 04:46:42;;;;;;;5.27;2.40;;;2.10;72.50;;;;;;5058476;28;20055;-75
2022/03/03 04:49:09;;;;;;;4.47;2.03;;;2.10;72.60;;;;;;5058694;28;20553;-76
2022/03/03 04:51:39;;;;;;;5.93;2.20;;;2.10;73.30;;;;;;5059163;28;20089;-75
2022/03/03 04:54:08;;;;;;;5.37;2.10;;;2.10;72.70;;;;;;5058162;28;20047;-75
2022/03/03 04:56:37;;;;;;;5.27;2.30;;;2.10;72.80;;;;;;5074687;28;20044;-75
2022/03/03 04:59:04;;;;;;;5.70;2.33;;;2.00;72.80;;;;;;5058603;28;20071;-75
2022/03/03 05:01:31;;;;;;;4.87;2.00;;;2.00;72.90;;;;;;5092782;28;20032;-75
2022/03/03 05:03:58;;;;;;;5.13;2.30;;;2.00;72.90;;;;;;5074782;28;20039;-75
2022/03/03 05:06:25;;;;;;;5.07;2.20;;;2.00;73.00;;;;;;5057773;28;20113;-75
2022/03/03 05:08:52;;;;;;;4.80;1.97;;;2.00;73.00;;;;;;5058405;28;20036;-75
2022/03/03 05:11:19;;;;;;;5.43;2.50;;;1.90;73.00;;;;;;5074706;28;20116;-75
2022/03/03 05:13:50;;;;;;;5.63;2.70;;;1.90;73.10;;;;;;5058159;28;20438;-75
2022/03/03 05:16:18;;;;;;;5.30;2.17;;;1.90;73.20;;;;;;5057712;28;20101;-75
2022/03/03 05:18:45;;;;;;;5.60;2.50;;;1.90;73.20;;;;;;5074483;28;20044;-75
2022/03/03 05:21:12;;;;;;;5.63;2.40;;;1.90;73.30;;;;;;5057624;28;20067;-75
2022/03/03 05:23:39;;;;;;;5.63;2.57;;;1.90;73.40;;;;;;5041224;28;20044;-75
2022/03/03 05:26:06;;;;;;;5.77;2.57;;;1.90;73.40;;;;;;5057590;28;20047;-76
2022/03/03 05:28:33;;;;;;;5.27;2.30;;;1.80;73.40;;;;;;5057567;28;20146;-78
2022/03/03 05:31:00;;;;;;;6.00;2.60;;;1.80;73.70;;;;;;5074438;28;20040;-78
2022/03/03 05:33:29;;;;;;;4.27;2.27;;;1.80;73.50;;;;;;5057664;28;20040;-78
2022/03/03 05:35:59;;;;;;;4.67;2.00;;;1.80;73.60;;;;;;5074238;28;20071;-78
2022/03/03 05:38:31;;;;;;;6.33;2.80;;;1.80;73.60;;;;;;5074231;28;20058;-78
2022/03/03 05:40:59;;;;;;;5.38;2.60;;;1.70;73.60;;;;;;5054213;28;20580;-78
2022/03/03 05:43:27;;;;;;;5.30;2.30;;;1.70;73.70;;;;;;5033048;28;20562;-78
2022/03/03 05:45:55;;;;;;;6.37;2.87;;;1.70;73.70;;;;;;5074157;28;20097;-78
2022/03/03 05:48:23;;;;;;;6.77;2.47;;;1.70;73.70;;;;;;5074476;28;20093;-78
2022/03/03 05:50:50;;;;;;;5.93;2.73;;;1.70;73.70;;;;;;5092580;28;20036;-79
2022/03/03 05:53:18;;;;;;;5.40;2.30;;;1.70;73.80;;;;;;5074113;28;20640;-75
2022/03/03 05:55:58;;;;;;;6.10;2.30;;;1.70;73.80;;;;;;5057779;28;20374;-76
2022/03/03 05:58:47;;;;;;;5.53;2.23;;;1.70;73.90;;;;;;5042948;28;20044;-76
2022/03/03 06:01:16;;;;;;;5.27;2.00;;;1.70;73.90;;;;;;5073997;28;20051;-76
2022/03/03 06:03:50;;;;;;;5.05;2.08;;;1.60;73.90;;;;;;5092248;28;20044;-76
2022/03/03 06:06:21;;;;;;;5.03;2.17;;;1.60;73.90;;;;;;5058053;28;20059;-76
2022/03/03 06:09:04;;;;;;;5.13;2.33;;;1.60;73.90;;;;;;5073971;28;20044;-76
2022/03/03 06:11:34;;;;;;;5.40;2.30;;;1.60;73.80;;;;;;5092043;28;20040;-78
2022/03/03 06:14:08;;;;;;;6.23;2.60;;;1.60;73.80;;;;;;5074101;28;20169;-79
2022/03/03 06:16:39;;;;;;;4.40;2.27;;;1.60;73.90;;;;;;5074140;28;20053;-79
2022/03/03 06:19:06;;;;;;;4.27;1.80;;;1.60;74.00;;;;;;5095729;28;20051;-79
2022/03/03 06:21:33;;;;;;;6.23;2.10;;;1.60;74.10;;;;;;5044575;28;20047;-76
2022/03/03 06:24:00;;;;;;;4.73;1.70;;;1.60;74.10;;;;;;5061265;28;20040;-76
2022/03/03 06:26:27;;;;;;;4.73;2.47;;;1.50;74.10;;;;;;5044695;28;20484;-76
2022/03/03 06:28:54;;;;;;;3.83;1.80;;;1.50;74.20;;;;;;5061161;28;20122;-75
2022/03/03 06:31:22;;;;;;;4.53;2.10;;;1.60;74.30;;;;;;5060911;28;20481;-76
2022/03/03 06:33:49;;;;;;;4.90;2.40;;;1.60;74.30;;;;;;5044661;28;20151;-75
2022/03/03 06:36:16;;;;;;;4.67;2.10;;;1.60;74.30;;;;;;5044246;28;20056;-76
2022/03/03 06:38:43;;;;;;;5.17;2.30;;;1.60;74.20;;;;;;5044414;28;20551;-76
2022/03/03 06:41:10;;;;;;;5.80;2.33;;;1.60;74.10;;;;;;5060405;28;20047;-79
2022/03/03 06:43:37;;;;;;;5.27;2.47;;;1.60;74.20;;;;;;5074122;28;20075;-76
2022/03/03 06:46:06;;;;;;;5.03;2.10;;;1.60;74.20;;;;;;5057192;28;20127;-76
2022/03/03 06:48:33;;;;;;;6.03;2.50;;;1.60;74.20;;;;;;5040536;28;20383;-76
2022/03/03 06:51:04;;;;;;;6.10;2.50;;;1.70;74.20;;;;;;5007924;28;20511;-76
2022/03/03 06:53:35;;;;;;;4.53;1.83;;;1.70;74.10;;;;;;5040484;28;20079;-76
2022/03/03 06:56:07;;;;;;;6.20;2.87;;;1.70;74.10;;;;;;5074820;28;20059;-76
2022/03/03 06:58:35;;;;;;;5.63;2.77;;;1.80;74.10;;;;;;5056710;28;20044;-76
2022/03/03 07:01:06;;;;;;;6.07;2.63;;;1.80;74.00;;;;;;5040195;28;20663;-76
2022/03/03 07:03:34;;;;;;;5.03;2.63;;;1.80;74.00;;;;;;5040071;28;20049;-76
2022/03/03 07:06:04;;;;;;;7.17;3.00;;;1.80;73.90;;;;;;5040137;28;20078;-76
2022/03/03 07:08:33;;;;;;;5.80;2.73;;;1.90;74.00;;;;;;5039980;28;20053;-76
2022/03/03 07:11:00;;;;;;;5.03;2.30;;;1.90;73.90;;;;;;5056692;28;20075;-78
2022/03/03 07:13:27;;;;;;;4.73;2.30;;;1.90;73.90;;;;;;5056730;28;20455;-79
2022/03/03 07:16:23;;;;;;;4.43;2.22;;;2.00;73.90;;;;;;5042033;28;20112;-79
2022/03/03 07:18:53;;;;;;;4.63;2.00;;;2.00;73.80;;;;;;5056584;28;20048;-79
2022/03/03 07:21:36;;;;;;;5.87;3.17;;;2.00;73.70;;;;;;5056581;28;20040;-79
2022/03/03 07:24:08;;;;;;;;;;;2.10;73.60;;;;;;5056663;28;20135;-79
2022/03/03 07:26:37;;;;;;;7.57;3.00;;;2.10;73.70;;;;;;5039344;28;19920;-79
2022/03/03 07:29:07;;;;;;;7.07;3.67;;;2.20;73.60;;;;;;5055648;28;20071;-79
2022/03/03 07:31:46;;;;;;;6.07;2.60;;;2.20;73.40;;;;;;5039985;28;20097;-80
2022/03/03 07:34:16;;;;;;;5.63;2.80;;;2.30;73.40;;;;;;5074188;28;20048;-79
2022/03/03 07:36:46;;;;;;;6.10;3.07;;;2.30;73.20;;;;;;5056169;28;20475;-79
2022/03/03 07:39:16;;;;;;;6.27;2.77;;;2.40;73.20;;;;;;5039666;28;20583;-76
2022/03/03 07:41:45;;;;;;;6.97;3.30;;;2.50;73.10;;;;;;5060695;28;20376;-76
2022/03/03 07:44:13;;;;;;;5.57;2.90;;;2.50;73.00;;;;;;5059788;28;20056;-76
2022/03/03 07:46:40;;;;;;;6.87;3.17;;;2.60;72.90;;;;;;5043326;28;20051;-76
2022/03/03 07:49:09;;;;;;;6.13;2.93;;;2.60;72.90;;;;;;5059416;28;20113;-76
2022/03/03 07:51:37;;;;;;;4.93;2.63;;;2.70;72.80;;;;;;5076013;28;20071;-76
2022/03/03 07:54:04;;;;;;;5.53;2.53;;;2.80;72.80;;;;;;5059115;28;20430;-76
2022/03/03 07:56:40;;;;;;;5.80;2.93;;;2.80;72.70;;;;;;5059535;28;20044;-76
2022/03/03 07:59:12;;;;;;;7.20;3.60;;;2.90;72.60;;;;;;5075849;28;20040;-76
2022/03/03 08:01:39;;;;;;;6.17;2.60;;;2.90;72.50;;;;;;5075286;28;20129;-76
2022/03/03 08:04:06;;;;;;;6.73;3.90;;;3.00;72.40;;;;;;5075626;28;20101;-76
2022/03/03 08:06:34;;;;;;;8.23;4.63;;;3.10;72.30;;;;;;5059227;28;20044;-76
2022/03/03 08:09:01;;;;;;;7.77;3.70;;;3.10;72.10;;;;;;5059082;28;20040;-76
2022/03/03 08:11:31;;;;;;;7.27;4.03;;;3.20;72.00;;;;;;5042430;28;20067;-76
2022/03/03 08:13:59;;;;;;;8.10;4.17;;;3.30;71.90;;;;;;5075573;28;20086;-78
2022/03/03 08:16:27;;;;;;;8.57;4.37;;;3.30;71.70;;;;;;5058705;28;20070;-80
2022/03/03 08:18:57;;;;;;;6.60;3.40;;;3.40;71.70;;;;;;5059087;28;20044;-79
2022/03/03 08:21:24;;;;;;;7.37;4.43;;;3.50;71.60;;;;;;5059104;28;20066;-79
2022/03/03 08:23:54;;;;;;;6.73;3.63;;;3.50;71.40;;;;;;5042534;28;20067;-79
2022/03/03 08:26:22;;;;;;;7.57;3.43;;;3.60;71.40;;;;;;5075458;28;20579;-79
2022/03/03 08:28:49;;;;;;;8.37;4.13;;;3.60;71.30;;;;;;5075406;28;20040;-79
2022/03/03 08:31:24;;;;;;;8.63;4.27;;;3.70;71.20;;;;;;5058802;28;20120;-80
2022/03/03 08:33:56;;;;;;;7.23;3.37;;;3.80;71.10;;;;;;5074916;28;20058;-81
2022/03/03 08:36:35;;;;;;;6.82;3.53;;;3.80;71.00;;;;;;5074688;28;20047;-79
2022/03/03 08:39:06;;;;;;;8.60;4.53;;;3.90;71.00;;;;;;5058334;28;20044;-79
2022/03/03 08:41:36;;;;;;;6.70;3.70;;;3.90;70.80;;;;;;5073470;28;20060;-79
2022/03/03 08:44:05;;;;;;;7.53;3.93;;;4.00;70.80;;;;;;5072834;28;20101;-78
2022/03/03 08:46:34;;;;;;;8.10;4.13;;;4.00;70.70;;;;;;5038808;28;20052;-79
2022/03/03 08:49:06;;;;;;;6.07;3.17;;;4.10;70.70;;;;;;5072802;28;20040;-79
2022/03/03 08:51:33;;;;;;;6.57;3.50;;;4.10;70.60;;;;;;5068085;28;20052;-83
2022/03/03 08:54:00;;;;;;;5.97;3.23;;;4.20;70.60;;;;;;5034909;28;20045;-84
2022/03/03 08:56:27;;;;;;;5.43;2.80;;;4.20;70.50;;;;;;5054775;28;20040;-81
2022/03/03 08:58:55;;;;;;;5.47;3.17;;;4.30;70.60;;;;;;5005959;28;20044;-83
2022/03/03 09:01:22;;;;;;;7.67;3.97;;;4.30;70.50;;;;;;5038552;28;20052;-83
2022/03/03 09:03:49;;;;;;;8.50;4.43;;;4.30;70.40;;;;;;5006053;28;20045;-82
2022/03/03 09:06:18;;;;;;;7.20;4.00;;;4.40;70.20;;;;;;5054794;28;20063;-83
2022/03/03 09:08:46;;;;;;;6.78;3.83;;;4.40;70.20;;;;;;5055010;28;20052;-81
2022/03/03 09:11:15;;;;;;;6.43;3.13;;;4.40;70.20;;;;;;5021903;28;20041;-82
2022/03/03 09:13:42;;;;;;;6.47;4.20;;;4.50;70.20;;;;;;5005949;28;20129;-81
2022/03/03 09:16:16;;;;;;;5.80;3.27;;;4.50;70.10;;;;;;5022935;28;20071;-81
2022/03/03 09:18:47;;;;;;;7.07;3.90;;;4.60;70.00;;;;;;5038128;28;20049;-81
2022/03/03 09:21:15;;;;;;;6.73;2.93;;;4.60;69.90;;;;;;5054367;28;20393;-82
2022/03/03 09:23:42;;;;;;;6.32;3.58;;;4.60;69.90;;;;;;5021746;28;20135;-81
2022/03/03 09:26:10;;;;;;;7.20;3.75;;;4.70;69.90;;;;;;5037828;28;20055;-82
2022/03/03 09:28:37;;;;;;;7.27;3.63;;;4.70;69.80;;;;;;5037840;28;20067;-81
2022/03/03 09:31:04;;;;;;;7.00;4.05;;;4.80;69.80;;;;;;5037822;28;20049;-81
2022/03/03 09:33:32;;;;;;;6.38;3.50;;;4.80;69.70;;;;;;5021955;28;20048;-83
2022/03/03 09:35:59;;;;;;;6.68;3.55;;;4.90;69.60;;;;;;5021362;28;20497;-81
2022/03/03 09:38:26;;;;;;;6.10;3.80;;;4.90;69.50;;;;;;5018117;28;20163;-82
2022/03/03 09:40:53;;;;;;;6.78;3.65;;;5.00;69.40;;;;;;5018020;28;20075;-81
2022/03/03 09:43:21;;;;;;;6.55;3.30;;;5.00;69.30;;;;;;5050532;28;20554;-82
2022/03/03 09:45:49;;;;;;;5.65;2.80;;;5.10;69.20;;;;;;5038211;28;20047;-81
2022/03/03 09:48:16;;;;;;;7.03;3.78;;;5.20;69.20;;;;;;5054951;28;20036;-81
2022/03/03 09:50:43;;;;;;;7.15;3.67;;;5.30;69.10;;;;;;5038919;28;20072;-82
2022/03/03 09:53:17;;;;;;;6.40;2.88;;;5.30;68.90;;;;;;5041597;28;20053;-81
2022/03/03 09:55:46;;;;;;;8.40;4.50;;;5.40;68.90;;;;;;5057857;28;20481;-80
2022/03/03 09:58:14;;;;;;;7.50;3.75;;;5.40;68.90;;;;;;5041271;28;20485;-79
2022/03/03 10:00:41;;;;;;;5.40;2.85;;;5.40;68.80;;;;;;5051865;28;20431;-82
2022/03/03 10:03:12;;;;;;;6.30;3.75;;;5.50;68.80;;;;;;5067628;28;20056;-78
2022/03/03 10:05:47;;;;;;;5.80;3.35;;;5.60;68.80;;;;;;5061646;28;20074;-81
2022/03/03 10:08:21;;;;;;;5.45;2.60;;;5.60;68.80;;;;;;5069746;28;20080;-82
2022/03/03 10:10:51;;;;;;;6.20;3.35;;;5.60;68.80;;;;;;5051741;28;20488;-81
2022/03/03 10:13:19;;;;;;;6.72;3.50;;;5.70;68.70;;;;;;5050417;28;20048;-81
2022/03/03 10:15:59;;;;;;;7.07;3.35;;;5.70;68.60;;;;;;5041656;28;20404;-82
2022/03/03 10:18:27;;;;;;;6.15;3.75;;;5.80;68.50;;;;;;5074642;28;20045;-81
2022/03/03 10:20:54;;;;;;;5.88;2.90;;;5.80;68.50;;;;;;5041313;28;20109;-81
2022/03/03 10:23:28;;;;;;;6.28;3.15;;;5.90;68.50;;;;;;5074196;28;20036;-79
2022/03/03 10:25:57;;;;;;;5.53;2.70;;;6.00;68.40;;;;;;5075501;28;20967;-80
2022/03/03 10:28:34;;;;;;;5.10;3.15;;;6.00;68.40;;;;;;5075405;28;20037;-80
2022/03/03 10:31:22;;;;;;;6.45;2.80;;;6.10;68.40;;;;;;5075390;28;20082;-79
2022/03/03 10:33:49;;;;;;;8.95;5.32;;;6.10;68.30;;;;;;5075353;28;20036;-79
2022/03/03 10:36:22;;;;;;;7.35;4.18;;;6.20;68.10;;;;;;5057508;28;20552;-79
2022/03/03 10:38:54;;;;;;;;;;;6.30;68.00;;;;;;5075426;28;20048;-79
2022/03/03 10:41:38;;;;;;;6.05;3.33;;;6.30;68.00;;;;;;5075205;28;20341;-79
2022/03/03 10:44:31;;;;;;;6.95;3.30;;;6.40;67.80;;;;;;5056492;28;20056;-80
2022/03/03 10:47:13;;;;;;;6.30;3.78;;;6.50;67.70;;;;;;5111140;28;20542;-80
2022/03/03 10:49:43;;;;;;;5.95;2.92;;;6.60;67.50;;;;;;5078341;28;20455;-79
2022/03/03 10:52:11;;;;;;;6.68;3.38;;;6.60;67.50;;;;;;5077914;28;20065;-79
2022/03/03 10:54:52;;;;;;;5.47;3.15;;;6.70;67.60;;;;;;5077800;28;20047;-80
2022/03/03 10:57:40;;;;;;;6.80;4.25;;;6.70;67.40;;;;;;5094539;28;20043;-80
2022/03/03 11:00:15;;;;;;;6.50;4.28;;;6.70;67.30;;;;;;5094649;28;20659;-78
2022/03/03 11:02:48;;;;;;;6.72;3.88;;;6.80;67.20;;;;;;5094011;28;20126;-79
2022/03/03 11:05:17;;;;;;;7.47;3.95;;;6.90;67.10;;;;;;5094947;28;20446;-85
2022/03/03 11:07:46;;;;;;;7.45;3.30;;;7.00;67.10;;;;;;5078104;28;20082;-80
2022/03/03 11:10:21;;;;;;;5.82;3.33;;;7.00;67.00;;;;;;5099459;28;20508;-79
2022/03/03 11:12:51;;;;;;;7.45;4.20;;;7.10;66.80;;;;;;5072584;28;20122;-82
2022/03/03 11:15:20;;;;;;;6.88;3.47;;;7.20;66.60;;;;;;5038048;28;20036;-77
2022/03/03 11:17:49;;;;;;;6.22;3.25;;;7.30;66.60;;;;;;5054314;28;20103;-79
2022/03/03 11:20:17;;;;;;;6.10;3.38;;;7.30;66.50;;;;;;5021453;28;20040;-79
2022/03/03 11:22:46;;;;;;;6.47;4.05;;;7.40;66.50;;;;;;5038348;28;20063;-80
2022/03/03 11:25:40;;;;;;;6.53;3.67;;;7.40;66.30;;;;;;5041436;28;20802;-79
2022/03/03 11:28:09;;;;;;;5.32;3.08;;;7.50;66.10;;;;;;5053985;28;20093;-79
2022/03/03 11:30:37;;;;;;;6.47;3.50;;;7.50;66.20;;;;;;5053577;28;20056;-79
2022/03/03 11:33:27;;;;;;;7.25;4.40;;;7.50;65.90;;;;;;5021033;28;20075;-81
2022/03/03 11:36:03;;;;;;;5.82;3.85;;;7.60;65.50;;;;;;5054793;28;20131;-81
2022/03/03 11:39:00;;;;;;;6.03;3.33;;;7.70;65.50;;;;;;5054354;28;20037;-80
2022/03/03 11:41:49;;;;;;;7.47;3.40;;;7.70;65.30;;;;;;5053738;28;20570;-81
2022/03/03 11:44:16;;;;;;;5.40;3.25;;;7.70;65.10;;;;;;5053697;28;20127;-80
2022/03/03 11:46:47;;;;;;;6.53;3.95;;;7.70;65.00;;;;;;5054271;28;20071;-80
2022/03/03 11:49:20;;;;;;;7.57;4.28;;;7.80;64.70;;;;;;5036728;28;20052;-79
2022/03/03 11:51:51;;;;;;;7.13;4.25;;;7.90;64.40;;;;;;5036581;28;20051;-79
2022/03/03 11:54:33;;;;;;;7.30;4.22;;;8.00;64.40;;;;;;5037513;28;20121;-79
2022/03/03 11:57:03;;;;;;;6.93;3.80;;;8.00;64.20;;;;;;5071339;28;20439;-79
2022/03/03 11:59:41;;;;;;;6.60;4.32;;;8.00;64.00;;;;;;5071210;28;20041;-79
2022/03/03 12:02:09;;;;;;;6.18;3.83;;;8.10;63.70;;;;;;5036340;28;20493;-78
2022/03/03 12:04:38;;;;;;;7.00;3.78;;;8.10;63.70;;;;;;5071543;28;20079;-77
2022/03/03 12:07:25;;;;;;;6.35;3.85;;;8.20;63.70;;;;;;5071071;28;20067;-78
2022/03/03 12:09:52;;;;;;;7.13;3.72;;;8.20;63.60;;;;;;5071428;28;20044;-78
2022/03/03 12:12:22;;;;;;;6.30;3.85;;;8.20;63.60;;;;;;5053271;28;20042;-78
2022/03/03 12:15:01;;;;;;;6.47;3.63;;;8.30;63.30;;;;;;5051710;28;20040;-78
2022/03/03 12:17:46;;;;;;;7.25;3.88;;;8.40;63.00;;;;;;5053040;28;20083;-78
2022/03/03 12:20:32;;;;;;;5.55;3.15;;;8.50;62.80;;;;;;5036264;28;20119;-75
2022/03/03 12:23:29;;;;;;;5.63;3.72;;;8.50;62.80;;;;;;5058638;28;20153;-75
2022/03/03 12:25:58;;;;;;;5.30;3.13;;;8.50;62.70;;;;;;5071894;28;20044;-75
2022/03/03 12:28:36;;;;;;;6.10;3.72;;;8.60;62.50;;;;;;5047861;28;20162;-75
2022/03/03 12:31:18;;;;;;;6.45;3.55;;;8.70;62.90;;;;;;5056982;28;20427;-75
2022/03/03 12:33:59;;;;;;;5.33;3.33;;;8.80;62.10;;;;;;5081972;28;20475;-75
2022/03/03 12:36:26;;;;;;;5.05;2.85;;;8.80;62.10;;;;;;5061798;28;20331;-75
2022/03/03 12:38:56;;;;;;;5.68;3.70;;;8.80;62.10;;;;;;5073067;28;20037;-75
2022/03/03 12:41:25;;;;;;;5.18;3.30;;;8.90;61.50;;;;;;5059484;28;20105;-75
2022/03/03 12:43:54;;;;;;;7.07;3.65;;;8.90;61.30;;;;;;5064794;28;20064;-76
2022/03/03 12:46:21;;;;;;;5.78;3.00;;;9.00;61.20;;;;;;5075279;28;20048;-75
2022/03/03 12:48:48;;;;;;;5.78;3.25;;;9.00;61.00;;;;;;5037489;28;20049;-75
2022/03/03 12:51:15;;;;;;;6.20;3.95;;;9.00;60.70;;;;;;5070173;28;20106;-75
2022/03/03 12:53:47;;;;;;;5.07;3.03;;;9.00;60.30;;;;;;5054126;28;20043;-75
2022/03/03 12:56:28;;;;;;;5.60;3.60;;;9.00;60.10;;;;;;5054134;28;20049;-75
2022/03/03 12:58:57;;;;;;;6.40;3.17;;;9.00;59.80;;;;;;5072626;28;20494;-75
2022/03/03 13:01:25;;;;;;;4.47;2.63;;;9.00;59.70;;;;;;5059000;28;20071;-75
2022/03/03 13:03:53;;;;;;;3.55;2.17;;;9.00;59.60;;;;;;5055315;28;20041;-75
2022/03/03 13:06:21;;;;;;;4.63;2.83;;;9.10;59.70;;;;;;5051244;28;20056;-75
2022/03/03 13:08:57;;;;;;;4.90;3.03;;;9.10;59.50;;;;;;5075331;28;20044;-75
2022/03/03 13:11:25;;;;;;;5.28;3.08;;;9.10;59.00;;;;;;5075279;28;20055;-75